Time,TemperatureF,DewpointF,PressureIn,WindDirection,WindDirectionDegrees,WindSpeedMPH,WindSpeedGustMPH,Humidity,HourlyPrecipIn,Conditions,Clouds,dailyrainin,SoftwareType,DateUTC
2013-04-16 00:03:00,46.0,-99.9,-100.00,NNW,335,15.0,-999.0,-999,0.03,,,0.47,,2013-04-16 05:03:00,
2013-04-16 00:12:00,46.0,-99.9,-100.00,NNW,335,15.0,-999.0,-999,0.03,,,0.47,,2013-04-16 05:12:00,
2013-04-16 00:22:00,46.0,-99.9,-100.00,NNW,335,15.0,-999.0,-999,0.03,,,0.47,,2013-04-16 05:22:00,
2013-04-16 00:32:00,45.0,-99.9,-100.00,NW,316,9.0,-999.0,-999,0.04,,,0.38,,2013-04-16 05:32:00,
2013-04-16 00:43:00,45.0,-99.9,-100.00,NW,316,9.0,-999.0,-999,0.04,,,0.38,,2013-04-16 05:43:00,
2013-04-16 00:52:00,45.0,-99.9,-100.00,NW,316,9.0,-999.0,-999,0.04,,,0.38,,2013-04-16 05:52:00,
2013-04-16 01:02:00,44.0,-99.9,-100.00,North,350,12.0,-999.0,-999,0.21,,,0.58,,2013-04-16 06:02:00,
2013-04-16 01:12:00,44.0,-99.9,-100.00,North,350,12.0,-999.0,-999,0.21,,,0.58,,2013-04-16 06:12:00,
2013-04-16 01:22:00,44.0,-99.9,-100.00,North,350,12.0,-999.0,-999,0.21,,,0.58,,2013-04-16 06:22:00,
2013-04-16 01:32:00,44.0,-99.9,-100.00,North,352,10.0,-999.0,-999,0.30,,,0.68,,2013-04-16 06:32:00,
2013-04-16 01:42:00,44.0,-99.9,-100.00,North,352,10.0,-999.0,-999,0.30,,,0.68,,2013-04-16 06:42:00,
2013-04-16 01:52:00,44.0,-99.9,-100.00,North,352,10.0,-999.0,-999,0.30,,,0.68,,2013-04-16 06:52:00,
2013-04-16 02:02:00,44.0,-99.9,-100.00,NE,40,7.0,-999.0,-999,0.10,,,0.68,,2013-04-16 07:02:00,
2013-04-16 02:12:00,44.0,-99.9,-100.00,NE,40,7.0,-999.0,-999,0.10,,,0.68,,2013-04-16 07:12:00,
2013-04-16 02:22:00,44.0,-99.9,-100.00,NE,40,7.0,-999.0,-999,0.10,,,0.68,,2013-04-16 07:22:00,
2013-04-16 02:32:00,44.0,-99.9,-100.00,NNW,345,8.0,-999.0,-999,0.00,,,0.68,,2013-04-16 07:32:00,
2013-04-16 02:42:00,44.0,-99.9,-100.00,NNW,345,8.0,-999.0,-999,0.00,,,0.68,,2013-04-16 07:42:00,
2013-04-16 02:53:00,44.0,-99.9,-100.00,NNW,345,8.0,-999.0,-999,0.00,,,0.68,,2013-04-16 07:53:00,
2013-04-16 03:02:00,44.0,-99.9,-100.00,North,1,10.0,-999.0,-999,0.00,,,0.68,,2013-04-16 08:02:00,
2013-04-16 03:12:00,44.0,-99.9,-100.00,North,1,10.0,-999.0,-999,0.00,,,0.68,,2013-04-16 08:12:00,
2013-04-16 03:22:00,44.0,-99.9,-100.00,North,1,10.0,-999.0,-999,0.00,,,0.68,,2013-04-16 08:22:00,
2013-04-16 03:32:00,44.0,-99.9,-100.00,NNW,343,9.0,-999.0,-999,0.02,,,0.70,,2013-04-16 08:32:00,
2013-04-16 03:42:00,44.0,-99.9,-100.00,NNW,343,9.0,-999.0,-999,0.02,,,0.70,,2013-04-16 08:42:00,
2013-04-16 03:52:00,44.0,-99.9,-100.00,NNW,343,9.0,-999.0,-999,0.02,,,0.70,,2013-04-16 08:52:00,
2013-04-16 04:02:00,44.0,-99.9,-100.00,North,356,10.0,-999.0,-999,0.02,,,0.70,,2013-04-16 09:02:00,
2013-04-16 04:12:00,44.0,-99.9,-100.00,North,356,10.0,-999.0,-999,0.02,,,0.70,,2013-04-16 09:12:00,
2013-04-16 04:22:00,44.0,-99.9,-100.00,North,356,10.0,-999.0,-999,0.02,,,0.70,,2013-04-16 09:22:00,
2013-04-16 04:33:00,44.0,-99.9,-100.00,NNW,340,14.0,-999.0,-999,0.00,,,0.70,,2013-04-16 09:33:00,
2013-04-16 04:43:00,44.0,-99.9,-100.00,NNW,340,14.0,-999.0,-999,0.00,,,0.70,,2013-04-16 09:43:00,
2013-04-16 04:53:00,44.0,-99.9,-100.00,NNW,340,14.0,-999.0,-999,0.00,,,0.70,,2013-04-16 09:53:00,
2013-04-16 05:03:00,44.0,-99.9,-100.00,North,355,8.0,-999.0,-999,0.00,,,0.70,,2013-04-16 10:03:00,
2013-04-16 05:13:00,44.0,-99.9,-100.00,North,355,8.0,-999.0,-999,0.00,,,0.70,,2013-04-16 10:13:00,
2013-04-16 05:23:00,44.0,-99.9,-100.00,North,355,8.0,-999.0,-999,0.00,,,0.70,,2013-04-16 10:23:00,
2013-04-16 05:33:00,44.0,-99.9,-100.00,NNW,345,10.0,-999.0,-999,0.00,,,0.70,,2013-04-16 10:33:00,
2013-04-16 05:43:00,44.0,-99.9,-100.00,NNW,345,10.0,-999.0,-999,0.00,,,0.70,,2013-04-16 10:43:00,
2013-04-16 05:53:00,44.0,-99.9,-100.00,NNW,345,10.0,-999.0,-999,0.00,,,0.70,,2013-04-16 10:53:00,
2013-04-16 06:03:00,44.0,-99.9,-100.00,NNW,344,7.0,-999.0,-999,0.00,,,0.70,,2013-04-16 11:03:00,
2013-04-16 06:12:00,44.0,-99.9,-100.00,NNW,344,7.0,-999.0,-999,0.00,,,0.70,,2013-04-16 11:12:00,
2013-04-16 06:22:00,44.0,-99.9,-100.00,NNW,344,7.0,-999.0,-999,0.00,,,0.70,,2013-04-16 11:22:00,
2013-04-16 06:32:00,44.0,-99.9,-100.00,North,355,8.0,-999.0,-999,0.00,,,0.70,,2013-04-16 11:32:00,
2013-04-16 06:42:00,44.0,-99.9,-100.00,North,355,8.0,-999.0,-999,0.00,,,0.70,,2013-04-16 11:42:00,
2013-04-16 06:53:00,44.0,-99.9,-100.00,North,355,8.0,-999.0,-999,0.00,,,0.70,,2013-04-16 11:53:00,
2013-04-16 07:02:00,44.0,-99.9,-100.00,North,4,7.0,-999.0,-999,0.00,,,0.70,,2013-04-16 12:02:00,
2013-04-16 07:12:00,44.0,-99.9,-100.00,North,4,7.0,-999.0,-999,0.00,,,0.70,,2013-04-16 12:12:00,
2013-04-16 07:22:00,44.0,-99.9,-100.00,North,4,7.0,-999.0,-999,0.00,,,0.70,,2013-04-16 12:22:00,
2013-04-16 07:32:00,44.0,-99.9,-100.00,NNE,16,7.0,-999.0,-999,0.00,,,0.69,,2013-04-16 12:32:00,
2013-04-16 07:42:00,44.0,-99.9,-100.00,NNE,16,7.0,-999.0,-999,0.00,,,0.69,,2013-04-16 12:42:00,
2013-04-16 07:52:00,44.0,-99.9,-100.00,NNE,16,7.0,-999.0,-999,0.00,,,0.69,,2013-04-16 12:52:00,
2013-04-16 08:00:00,44.0,-99.9,-100.00,NNW,333,7.0,-999.0,-999,0.00,,,0.64,,2013-04-16 13:00:00,
2013-04-16 08:02:00,45.0,-99.9,-100.00,NNE,16,9.0,-999.0,-999,0.00,,,0.69,,2013-04-16 13:02:00,
2013-04-16 08:12:00,45.0,-99.9,-100.00,NNE,16,9.0,-999.0,-999,0.00,,,0.69,,2013-04-16 13:12:00,
2013-04-16 08:22:00,45.0,-99.9,-100.00,NNE,16,9.0,-999.0,-999,0.00,,,0.69,,2013-04-16 13:22:00,
2013-04-16 08:32:00,44.0,-99.9,-100.00,NNW,333,7.0,-999.0,-999,0.00,,,0.64,,2013-04-16 13:32:00,
2013-04-16 08:42:00,44.0,-99.9,-100.00,NNW,333,7.0,-999.0,-999,0.00,,,0.64,,2013-04-16 13:42:00,
2013-04-16 08:52:00,44.0,-99.9,-100.00,NNW,333,7.0,-999.0,-999,0.00,,,0.64,,2013-04-16 13:52:00,
2013-04-16 09:32:00,45.0,-99.9,-100.00,North,8,11.0,-999.0,-999,0.00,,,0.64,,2013-04-16 14:32:00,
2013-04-16 09:42:00,45.0,-99.9,-100.00,North,8,11.0,-999.0,-999,0.00,,,0.64,,2013-04-16 14:42:00,
2013-04-16 09:52:00,45.0,-99.9,-100.00,North,8,11.0,-999.0,-999,0.00,,,0.64,,2013-04-16 14:52:00,
2013-04-16 10:00:00,43.0,-99.9,-100.00,North,354,12.0,-999.0,-999,0.06,,,0.70,,2013-04-16 15:00:00,
2013-04-16 10:02:00,44.0,-99.9,-100.00,North,6,12.0,-999.0,-999,0.03,,,0.67,,2013-04-16 15:02:00,
2013-04-16 10:12:00,44.0,-99.9,-100.00,North,6,12.0,-999.0,-999,0.03,,,0.67,,2013-04-16 15:12:00,
2013-04-16 10:22:00,44.0,-99.9,-100.00,North,6,12.0,-999.0,-999,0.03,,,0.67,,2013-04-16 15:22:00,
2013-04-16 10:33:00,43.0,-99.9,-100.00,North,354,12.0,-999.0,-999,0.06,,,0.70,,2013-04-16 15:33:00,
2013-04-16 10:43:00,43.0,-99.9,-100.00,North,354,12.0,-999.0,-999,0.06,,,0.70,,2013-04-16 15:43:00,
2013-04-16 10:53:00,43.0,-99.9,-100.00,North,354,12.0,-999.0,-999,0.06,,,0.70,,2013-04-16 15:53:00,
2013-04-16 11:33:00,45.0,-99.9,-100.00,North,350,9.0,-999.0,-999,0.03,,,0.73,,2013-04-16 16:33:00,
2013-04-16 11:42:00,45.0,-99.9,-100.00,North,350,9.0,-999.0,-999,0.03,,,0.73,,2013-04-16 16:42:00,
2013-04-16 11:53:00,45.0,-99.9,-100.00,North,350,9.0,-999.0,-999,0.03,,,0.73,,2013-04-16 16:53:00,
2013-04-16 12:02:00,45.0,-99.9,-100.00,North,353,13.0,-999.0,-999,0.00,,,0.73,,2013-04-16 17:02:00,
2013-04-16 12:12:00,45.0,-99.9,-100.00,North,353,13.0,-999.0,-999,0.00,,,0.73,,2013-04-16 17:12:00,
2013-04-16 12:22:00,45.0,-99.9,-100.00,North,353,13.0,-999.0,-999,0.00,,,0.73,,2013-04-16 17:22:00,
2013-04-16 12:33:00,46.0,-99.9,-100.00,North,11,11.0,-999.0,-999,0.00,,,0.73,,2013-04-16 17:33:00,
2013-04-16 12:44:00,46.0,-99.9,-100.00,North,11,11.0,-999.0,-999,0.00,,,0.73,,2013-04-16 17:44:00,
2013-04-16 12:53:00,46.0,-99.9,-100.00,North,11,11.0,-999.0,-999,0.00,,,0.73,,2013-04-16 17:53:00,
2013-04-16 13:02:00,49.0,-99.9,-100.00,North,8,10.0,-999.0,-999,0.00,,,0.73,,2013-04-16 18:02:00,
2013-04-16 13:12:00,49.0,-99.9,-100.00,North,8,10.0,-999.0,-999,0.00,,,0.73,,2013-04-16 18:12:00,
2013-04-16 13:23:00,49.0,-99.9,-100.00,North,8,10.0,-999.0,-999,0.00,,,0.73,,2013-04-16 18:23:00,
2013-04-16 13:32:00,48.0,-99.9,-100.00,North,359,13.0,-999.0,-999,0.00,,,0.73,,2013-04-16 18:32:00,
2013-04-16 13:43:00,48.0,-99.9,-100.00,North,359,13.0,-999.0,-999,0.00,,,0.73,,2013-04-16 18:43:00,
2013-04-16 13:52:00,48.0,-99.9,-100.00,North,359,13.0,-999.0,-999,0.00,,,0.73,,2013-04-16 18:52:00,
2013-04-16 14:02:00,48.0,-99.9,-100.00,North,11,11.0,-999.0,-999,0.00,,,0.73,,2013-04-16 19:02:00,
2013-04-16 14:12:00,48.0,-99.9,-100.00,North,11,11.0,-999.0,-999,0.00,,,0.73,,2013-04-16 19:12:00,
2013-04-16 14:22:00,48.0,-99.9,-100.00,North,11,11.0,-999.0,-999,0.00,,,0.73,,2013-04-16 19:22:00,
2013-04-16 14:32:00,48.0,-99.9,-100.00,North,354,11.0,-999.0,-999,0.00,,,0.73,,2013-04-16 19:32:00,
2013-04-16 14:43:00,48.0,-99.9,-100.00,North,354,11.0,-999.0,-999,0.00,,,0.73,,2013-04-16 19:43:00,
2013-04-16 14:52:00,48.0,-99.9,-100.00,North,354,11.0,-999.0,-999,0.00,,,0.73,,2013-04-16 19:52:00,
2013-04-16 15:02:00,49.0,-99.9,-100.00,NNE,33,10.0,-999.0,-999,0.00,,,0.73,,2013-04-16 20:02:00,
2013-04-16 15:13:00,49.0,-99.9,-100.00,NNE,33,10.0,-999.0,-999,0.00,,,0.73,,2013-04-16 20:13:00,
2013-04-16 15:22:00,49.0,-99.9,-100.00,NNE,33,10.0,-999.0,-999,0.00,,,0.73,,2013-04-16 20:22:00,
2013-04-16 15:32:00,49.0,-99.9,-100.00,NNE,12,9.0,-999.0,-999,0.00,,,0.73,,2013-04-16 20:32:00,
2013-04-16 15:42:00,49.0,-99.9,-100.00,NNE,12,9.0,-999.0,-999,0.00,,,0.73,,2013-04-16 20:42:00,
2013-04-16 15:52:00,49.0,-99.9,-100.00,NNE,12,9.0,-999.0,-999,0.00,,,0.73,,2013-04-16 20:52:00,
2013-04-16 16:02:00,50.0,-99.9,-100.00,NNE,20,11.0,-999.0,-999,0.00,,,0.72,,2013-04-16 21:02:00,
2013-04-16 16:12:00,50.0,-99.9,-100.00,NNE,20,11.0,-999.0,-999,0.00,,,0.72,,2013-04-16 21:12:00,
2013-04-16 16:23:00,50.0,-99.9,-100.00,NNE,20,11.0,-999.0,-999,0.00,,,0.72,,2013-04-16 21:23:00,
2013-04-16 16:33:00,50.0,-99.9,-100.00,NNE,25,8.0,-999.0,-999,0.00,,,0.72,,2013-04-16 21:33:00,
2013-04-16 16:43:00,50.0,-99.9,-100.00,NNE,25,8.0,-999.0,-999,0.00,,,0.72,,2013-04-16 21:43:00,
2013-04-16 16:53:00,50.0,-99.9,-100.00,NNE,25,8.0,-999.0,-999,0.00,,,0.72,,2013-04-16 21:53:00,
2013-04-16 17:03:00,50.0,-99.9,-100.00,NNE,32,8.0,-999.0,-999,0.00,,,0.72,,2013-04-16 22:03:00,
2013-04-16 17:13:00,50.0,-99.9,-100.00,NNE,32,8.0,-999.0,-999,0.00,,,0.72,,2013-04-16 22:13:00,
2013-04-16 17:23:00,50.0,-99.9,-100.00,NNE,32,8.0,-999.0,-999,0.00,,,0.72,,2013-04-16 22:23:00,
2013-04-16 17:33:00,51.0,-99.9,-100.00,NE,36,8.0,-999.0,-999,0.00,,,0.72,,2013-04-16 22:33:00,
2013-04-16 17:43:00,51.0,-99.9,-100.00,NE,36,8.0,-999.0,-999,0.00,,,0.72,,2013-04-16 22:43:00,
2013-04-16 17:52:00,51.0,-99.9,-100.00,NE,36,8.0,-999.0,-999,0.00,,,0.72,,2013-04-16 22:52:00,
2013-04-16 18:03:00,51.0,-99.9,-100.00,NNE,15,9.0,-999.0,-999,0.00,,,0.72,,2013-04-16 23:03:00,
2013-04-16 18:12:00,51.0,-99.9,-100.00,NNE,15,9.0,-999.0,-999,0.00,,,0.72,,2013-04-16 23:12:00,
2013-04-16 18:22:00,51.0,-99.9,-100.00,NNE,15,9.0,-999.0,-999,0.00,,,0.72,,2013-04-16 23:22:00,
2013-04-16 18:32:00,51.0,-99.9,-100.00,NNE,27,7.0,-999.0,-999,0.00,,,0.72,,2013-04-16 23:32:00,
2013-04-16 18:43:00,51.0,-99.9,-100.00,NNE,27,7.0,-999.0,-999,0.00,,,0.72,,2013-04-16 23:43:00,
2013-04-16 18:52:00,51.0,-99.9,-100.00,NNE,27,7.0,-999.0,-999,0.00,,,0.72,,2013-04-16 23:52:00,
2013-04-16 19:02:00,51.0,-99.9,-100.00,NNE,14,6.0,-999.0,-999,0.00,,,0.72,,2013-04-17 00:02:00,
2013-04-16 19:12:00,51.0,-99.9,-100.00,NNE,14,6.0,-999.0,-999,0.00,,,0.72,,2013-04-17 00:12:00,
2013-04-16 19:22:00,51.0,-99.9,-100.00,NNE,14,6.0,-999.0,-999,0.00,,,0.72,,2013-04-17 00:22:00,
2013-04-16 19:32:00,51.0,-99.9,-100.00,North,7,6.0,-999.0,-999,0.00,,,0.72,,2013-04-17 00:32:00,
2013-04-16 19:42:00,51.0,-99.9,-100.00,North,7,6.0,-999.0,-999,0.00,,,0.72,,2013-04-17 00:42:00,
2013-04-16 19:52:00,51.0,-99.9,-100.00,North,7,6.0,-999.0,-999,0.00,,,0.72,,2013-04-17 00:52:00,
2013-04-16 20:02:00,50.0,-99.9,-100.00,NNE,20,6.0,-999.0,-999,0.00,,,0.72,,2013-04-17 01:02:00,
2013-04-16 20:12:00,50.0,-99.9,-100.00,NNE,20,6.0,-999.0,-999,0.00,,,0.72,,2013-04-17 01:12:00,
2013-04-16 20:22:00,50.0,-99.9,-100.00,NNE,20,6.0,-999.0,-999,0.00,,,0.72,,2013-04-17 01:22:00,
2013-04-16 20:32:00,50.0,-99.9,-100.00,NE,41,4.0,-999.0,-999,0.00,,,0.72,,2013-04-17 01:32:00,
2013-04-16 20:42:00,50.0,-99.9,-100.00,NE,41,4.0,-999.0,-999,0.00,,,0.72,,2013-04-17 01:42:00,
2013-04-16 20:52:00,50.0,-99.9,-100.00,NE,41,4.0,-999.0,-999,0.00,,,0.72,,2013-04-17 01:52:00,
2013-04-16 21:02:00,50.0,-99.9,-100.00,NE,39,4.0,-999.0,-999,0.00,,,0.72,,2013-04-17 02:02:00,
2013-04-16 21:12:00,50.0,-99.9,-100.00,NE,39,4.0,-999.0,-999,0.00,,,0.72,,2013-04-17 02:12:00,
2013-04-16 21:22:00,50.0,-99.9,-100.00,NE,39,4.0,-999.0,-999,0.00,,,0.72,,2013-04-17 02:22:00,
2013-04-16 21:32:00,50.0,-99.9,-100.00,NNE,33,3.0,-999.0,-999,0.00,,,0.72,,2013-04-17 02:32:00,
2013-04-16 21:42:00,50.0,-99.9,-100.00,NNE,33,3.0,-999.0,-999,0.00,,,0.72,,2013-04-17 02:42:00,
2013-04-16 21:53:00,50.0,-99.9,-100.00,NNE,33,3.0,-999.0,-999,0.00,,,0.72,,2013-04-17 02:53:00,
2013-04-16 22:02:00,50.0,-99.9,-100.00,ENE,57,2.0,-999.0,-999,0.00,,,0.72,,2013-04-17 03:02:00,
2013-04-16 22:12:00,50.0,-99.9,-100.00,ENE,57,2.0,-999.0,-999,0.00,,,0.72,,2013-04-17 03:12:00,
2013-04-16 22:22:00,50.0,-99.9,-100.00,ENE,57,2.0,-999.0,-999,0.00,,,0.72,,2013-04-17 03:22:00,
2013-04-16 22:33:00,50.0,-99.9,-100.00,ENE,65,4.0,-999.0,-999,0.00,,,0.69,,2013-04-17 03:33:00,
2013-04-16 22:43:00,50.0,-99.9,-100.00,ENE,65,4.0,-999.0,-999,0.00,,,0.69,,2013-04-17 03:43:00,
2013-04-16 22:53:00,50.0,-99.9,-100.00,ENE,65,4.0,-999.0,-999,0.00,,,0.69,,2013-04-17 03:53:00,
2013-04-16 23:03:00,50.0,-99.9,-100.00,East,93,4.0,-999.0,-999,0.00,,,0.45,,2013-04-17 04:03:00,
2013-04-16 23:13:00,50.0,-99.9,-100.00,East,93,4.0,-999.0,-999,0.00,,,0.45,,2013-04-17 04:13:00,
2013-04-16 23:23:00,50.0,-99.9,-100.00,East,93,4.0,-999.0,-999,0.00,,,0.45,,2013-04-17 04:23:00,
2013-04-16 23:33:00,50.0,-99.9,-100.00,East,87,3.0,-999.0,-999,0.00,,,0.45,,2013-04-17 04:33:00,
2013-04-16 23:43:00,50.0,-99.9,-100.00,East,87,3.0,-999.0,-999,0.00,,,0.45,,2013-04-17 04:43:00,
2013-04-16 23:53:00,50.0,-99.9,-100.00,East,87,3.0,-999.0,-999,0.00,,,0.45,,2013-04-17 04:53:00,